Zefira — 9HA2459 — position and weather

sailwx.info

Track history (hours):
 
Tides and Currents Weather Stations Pressure Air Temp Water Temp Dewpoint Dewpoint Depression Visibility Wind Speed Wind Dir Waves Ship Positions

Zefira

Last reported at 2016-Jun-25 15:30 UTC. Time now 2016-Jun-25 16:11 UTC.
Position N 38°46' E 001°26'.

Length 50 m; draft 4.9 m.

Type: Pleasure craft. MMSI: 248663000.

Date/timePositionNaut miles runAvg speedWind from/ knotsBaromVisibWave heightAir tempDewpointWater temp
2016-Jun-25 15:30N 38°46' E 001°26'0 0.0
2016-Jun-25 14:33N 38°46' E 001°26'0 0.0
2016-Jun-25 13:33N 38°46' E 001°26'0 0.0
2016-Jun-25 12:29N 38°46' E 001°26'0 0.0
2016-Jun-25 11:33N 38°46' E 001°26'2 1.7
2016-Jun-25 10:32N 38°45' E 001°24'9 2.6
2016-Jun-25 07:11N 38°52' E 001°18'0 0.0
2016-Jun-25 06:32N 38°52' E 001°18'0 0.0
2016-Jun-25 05:32N 38°52' E 001°18'0 0.0
2016-Jun-25 04:33N 38°52' E 001°18'0 0.0
2016-Jun-25 03:33N 38°52' E 001°18'0 0.0
2016-Jun-25 02:24N 38°52' E 001°18'0 0.0
2016-Jun-25 00:33N 38°52' E 001°18'0 0.0
2016-Jun-24 23:33N 38°52' E 001°18'0 0.0
2016-Jun-24 22:33N 38°52' E 001°18'0 0.0
2016-Jun-24 21:33N 38°52' E 001°18'0 0.0
2016-Jun-24 20:33N 38°52' E 001°18'0 0.0
2016-Jun-24 19:33N 38°52' E 001°18'0 0.0
2016-Jun-24 18:23N 38°52' E 001°18'4 4.9
2016-Jun-24 17:32N 38°49' E 001°21'5 4.9
2016-Jun-24 16:33N 38°46' E 001°26'0 0.0
2016-Jun-24 15:33N 38°46' E 001°26'0 0.0
2016-Jun-24 14:33N 38°46' E 001°26'0 0.0
2016-Jun-24 13:32N 38°46' E 001°26'0 0.0
2016-Jun-24 12:33N 38°46' E 001°26'0 0.0
2016-Jun-24 11:33N 38°46' E 001°26'2 2.2
2016-Jun-24 10:33N 38°47' E 001°23'6 5.6
2016-Jun-24 09:32N 38°52' E 001°19'0 0.0
2016-Jun-24 08:33N 38°52' E 001°19'0 0.0
2016-Jun-24 07:30N 38°52' E 001°19'0 0.0
2016-Jun-24 04:33N 38°52' E 001°19'0 0.0
2016-Jun-24 03:33N 38°52' E 001°19'0 0.0
2016-Jun-24 02:24N 38°52' E 001°19'0 0.0
2016-Jun-23 22:31N 38°52' E 001°19'0 0.0
2016-Jun-23 21:33N 38°52' E 001°19'0 0.0
2016-Jun-23 20:33N 38°52' E 001°19'0 0.1
2016-Jun-23 19:33N 38°52' E 001°19'8 8.0
2016-Jun-23 18:33N 38°46' E 001°26'0 0.0
2016-Jun-23 17:33N 38°46' E 001°26'0 0.0
2016-Jun-23 16:33N 38°46' E 001°26'0 0.0
2016-Jun-23 15:33N 38°46' E 001°26'0 0.0
2016-Jun-23 14:33N 38°46' E 001°26'0 0.0
2016-Jun-23 13:33N 38°46' E 001°26'0 0.0
2016-Jun-23 12:33N 38°46' E 001°26'0 0.0
2016-Jun-23 11:33N 38°46' E 001°26'0 0.0
2016-Jun-23 10:32N 38°46' E 001°26'0 0.0
2016-Jun-23 09:33N 38°46' E 001°26'0 0.0
2016-Jun-23 08:33N 38°46' E 001°26'0 0.0
2016-Jun-23 07:33N 38°46' E 001°26'0 0.0
2016-Jun-23 05:33N 38°46' E 001°26'0 0.0
2016-Jun-23 04:33N 38°46' E 001°26'0 0.0
2016-Jun-23 03:33N 38°46' E 001°26'0 0.0
2016-Jun-23 02:33N 38°46' E 001°26'0 0.0
2016-Jun-23 01:31N 38°46' E 001°26'0 0.0
2016-Jun-23 00:33N 38°46' E 001°26'0 0.0
2016-Jun-22 23:33N 38°46' E 001°26'0 0.0
2016-Jun-22 22:33N 38°46' E 001°26'0 0.0
2016-Jun-22 21:33N 38°46' E 001°26'0 0.0
2016-Jun-22 20:33N 38°46' E 001°26'0 0.0
2016-Jun-22 19:33N 38°46' E 001°26'0 0.0
2016-Jun-22 18:33N 38°46' E 001°26'0 0.0
2016-Jun-22 17:33N 38°46' E 001°26'0 0.0
2016-Jun-22 16:33N 38°46' E 001°26'0 0.0
2016-Jun-22 15:33N 38°46' E 001°26'0 0.0
2016-Jun-22 14:33N 38°46' E 001°26'0 0.0
2016-Jun-22 13:33N 38°46' E 001°26'0 0.0
2016-Jun-22 12:32N 38°46' E 001°26'0 0.0
2016-Jun-22 11:33N 38°46' E 001°26'0 0.0
2016-Jun-22 10:32N 38°46' E 001°26'0 0.0
2016-Jun-22 09:23N 38°46' E 001°26'0 0.0
2016-Jun-22 08:33N 38°46' E 001°26'0 0.0
2016-Jun-22 07:33N 38°46' E 001°26'0 0.0
2016-Jun-22 06:22N 38°46' E 001°26'0 0.0
2016-Jun-22 05:33N 38°46' E 001°26'0 0.0
2016-Jun-22 04:33N 38°46' E 001°26'0 0.0
2016-Jun-22 03:33N 38°46' E 001°26'0 0.0
2016-Jun-22 02:31N 38°46' E 001°26'0 0.0
2016-Jun-22 01:32N 38°46' E 001°26'0 0.0
2016-Jun-22 00:33N 38°46' E 001°26'0 0.0
2016-Jun-21 23:33N 38°46' E 001°26'0 0.0
2016-Jun-21 22:33N 38°46' E 001°26'0 0.0
2016-Jun-21 21:23N 38°46' E 001°26'0 0.0
2016-Jun-21 20:32N 38°46' E 001°26'0 0.0
2016-Jun-21 19:33N 38°46' E 001°26'0 0.0
2016-Jun-21 18:33N 38°46' E 001°26'0 0.0
2016-Jun-21 17:32N 38°46' E 001°26'0 0.0
2016-Jun-21 16:30N 38°46' E 001°26'0 0.0
2016-Jun-21 15:29N 38°46' E 001°26'0 0.0
2016-Jun-21 14:33N 38°46' E 001°26'0 0.0
2016-Jun-21 13:33N 38°46' E 001°26'0 0.0
2016-Jun-21 12:33N 38°46' E 001°26'0 0.0
2016-Jun-21 11:33N 38°46' E 001°26'0 0.0
2016-Jun-21 10:33N 38°46' E 001°26'0 0.0
2016-Jun-21 09:27N 38°46' E 001°26'7 7.4
2016-Jun-21 08:32N 38°51' E 001°20'1 0.3
2016-Jun-21 04:21N 38°52' E 001°19'0 0.0
2016-Jun-21 03:24N 38°52' E 001°19'0 0.0
2016-Jun-20 23:20N 38°52' E 001°19'0 0.1
2016-Jun-20 16:26N 38°51' E 001°19'8 8.7
2016-Jun-20 15:32N 38°46' E 001°26'0 0.0
2016-Jun-20 14:29N 38°46' E 001°26'0 0.0
2016-Jun-20 13:28N 38°46' E 001°26'0 0.0
2016-Jun-20 12:28N 38°46' E 001°26'0 0.0
2016-Jun-20 11:28N 38°46' E 001°26'0 0.0
2016-Jun-20 10:30N 38°46' E 001°26'0 0.0
2016-Jun-20 09:29N 38°46' E 001°26'6 6.2
2016-Jun-20 08:33N 38°51' E 001°27'2 0.1
2016-Jun-19 15:27N 38°50' E 001°26'5 3.9
2016-Jun-19 14:07N 38°45' E 001°26'0 0.0
2016-Jun-19 13:17N 38°45' E 001°26'0 0.0
2016-Jun-19 12:30N 38°45' E 001°26'0 0.0
2016-Jun-19 09:22N 38°45' E 001°26'0 0.0
2016-Jun-19 08:16N 38°45' E 001°26'0 0.0
2016-Jun-19 06:23N 38°45' E 001°26'0 0.0
2016-Jun-19 05:31N 38°45' E 001°26'0 0.0
2016-Jun-19 04:33N 38°45' E 001°26'0 0.0
2016-Jun-19 03:31N 38°45' E 001°26'0 0.0
2016-Jun-19 02:30N 38°45' E 001°26'0 0.0
2016-Jun-19 01:29N 38°45' E 001°26'0 0.0
2016-Jun-19 00:29N 38°45' E 001°26'0 0.0
2016-Jun-18 23:28N 38°45' E 001°26'0 0.0
2016-Jun-18 22:25N 38°45' E 001°26'0 0.0
2016-Jun-18 21:33N 38°45' E 001°26'0 0.0
2016-Jun-18 20:33N 38°45' E 001°26'0 0.0
2016-Jun-18 19:33N 38°45' E 001°26'0 0.0
2016-Jun-18 18:33N 38°45' E 001°26'0 0.0
2016-Jun-18 17:33N 38°45' E 001°26'1 1.2
2016-Jun-18 16:33N 38°46' E 001°26'0 0.0
2016-Jun-18 15:34N 38°46' E 001°26'0 0.0
2016-Jun-18 14:31N 38°46' E 001°26'0 0.0
2016-Jun-18 13:33N 38°46' E 001°26'0 0.0
2016-Jun-18 12:33N 38°46' E 001°26'0 0.0
2016-Jun-18 11:33N 38°46' E 001°26'0 0.0
2016-Jun-18 10:30N 38°46' E 001°26'0 0.2
2016-Jun-18 09:32N 38°46' E 001°26'0 0.0
2016-Jun-18 08:33N 38°46' E 001°26'1 0.5
2016-Jun-18 07:33N 38°45' E 001°25'8 7.8
2016-Jun-18 06:33N 38°53' E 001°27'2 0.6
2016-Jun-18 03:33N 38°55' E 001°28'0 0.0
2016-Jun-18 02:33N 38°55' E 001°28'0 0.0
2016-Jun-18 00:33N 38°55' E 001°28'0 0.0
2016-Jun-17 23:08N 38°55' E 001°28'0 0.0
2016-Jun-17 22:31N 38°55' E 001°28'0 0.0
2016-Jun-17 18:32N 38°55' E 001°28'0 0.0
2016-Jun-17 17:31N 38°55' E 001°28'0 0.0
2016-Jun-17 16:22N 38°55' E 001°28'5 0.6
2016-Jun-17 08:33N 38°50' E 001°26'6 5.7
2016-Jun-17 07:33N 38°50' E 001°19'8 8.2
2016-Jun-17 06:33N 38°52' E 001°29'1010.2
2016-Jun-17 05:33N 38°60' E 001°38'10 9.5
2016-Jun-17 04:33N 39°09' E 001°38'1010.4
2016-Jun-17 03:33N 39°18' E 001°33'1010.3
2016-Jun-17 02:33N 39°28' E 001°27'2110.3
2016-Jun-17 00:32N 39°47' E 001°15'1010.1
2016-Jun-16 23:33N 39°56' E 001°11'10 9.8
2016-Jun-16 22:33N 40°05' E 001°07'1010.0
2016-Jun-16 21:33N 40°14' E 001°01'1111.3
2016-Jun-16 20:33N 40°24' E 000°54'10 8.9
2016-Jun-16 19:23N 40°34' E 000°56'1110.7
2016-Jun-16 18:19N 40°43' E 001°06'810.8
2016-Jun-16 17:33N 40°46' E 001°15'2210.8
2016-Jun-16 15:29N 40°57' E 001°42'1011.0
2016-Jun-16 14:33N 41°02' E 001°54'1111.1
2016-Jun-16 13:33N 41°07' E 002°06'1510.9
2016-Jun-16 12:11N 41°14' E 002°24'19911.9
2016-Jun-15 19:25N 42°51' E 006°18'4012.6
2016-Jun-15 16:18N 43°19' E 006°56'912.4
2016-Jun-15 15:33N 43°27' E 007°04'  
Track history (hours):
 
Tides and Currents Weather Stations Pressure Air Temp Water Temp Dewpoint Dewpoint Depression Visibility Wind Speed Wind Dir Waves Ship Positions

Zefira

Last reported at 2016-Jun-25 15:30 UTC. Time now 2016-Jun-25 16:11 UTC.
Position N 38°46' E 001°26'.

Length 50 m; draft 4.9 m.

Type: Pleasure craft. MMSI: 248663000.

Date/timePositionNaut miles runAvg speedWind from/ knotsBaromVisibWave heightAir tempDewpointWater temp
2016-Jun-25 15:30N 38°46' E 001°26'0 0.0
2016-Jun-25 14:33N 38°46' E 001°26'0 0.0
2016-Jun-25 13:33N 38°46' E 001°26'0 0.0
2016-Jun-25 12:29N 38°46' E 001°26'0 0.0
2016-Jun-25 11:33N 38°46' E 001°26'2 1.7
2016-Jun-25 10:32N 38°45' E 001°24'9 2.6
2016-Jun-25 07:11N 38°52' E 001°18'0 0.0
2016-Jun-25 06:32N 38°52' E 001°18'0 0.0
2016-Jun-25 05:32N 38°52' E 001°18'0 0.0
2016-Jun-25 04:33N 38°52' E 001°18'0 0.0
2016-Jun-25 03:33N 38°52' E 001°18'0 0.0
2016-Jun-25 02:24N 38°52' E 001°18'0 0.0
2016-Jun-25 00:33N 38°52' E 001°18'0 0.0
2016-Jun-24 23:33N 38°52' E 001°18'0 0.0
2016-Jun-24 22:33N 38°52' E 001°18'0 0.0
2016-Jun-24 21:33N 38°52' E 001°18'0 0.0
2016-Jun-24 20:33N 38°52' E 001°18'0 0.0
2016-Jun-24 19:33N 38°52' E 001°18'0 0.0
2016-Jun-24 18:23N 38°52' E 001°18'4 4.9
2016-Jun-24 17:32N 38°49' E 001°21'5 4.9
2016-Jun-24 16:33N 38°46' E 001°26'0 0.0
2016-Jun-24 15:33N 38°46' E 001°26'0 0.0
2016-Jun-24 14:33N 38°46' E 001°26'0 0.0
2016-Jun-24 13:32N 38°46' E 001°26'0 0.0
2016-Jun-24 12:33N 38°46' E 001°26'0 0.0
2016-Jun-24 11:33N 38°46' E 001°26'2 2.2
2016-Jun-24 10:33N 38°47' E 001°23'6 5.6
2016-Jun-24 09:32N 38°52' E 001°19'0 0.0
2016-Jun-24 08:33N 38°52' E 001°19'0 0.0
2016-Jun-24 07:30N 38°52' E 001°19'0 0.0
2016-Jun-24 04:33N 38°52' E 001°19'0 0.0
2016-Jun-24 03:33N 38°52' E 001°19'0 0.0
2016-Jun-24 02:24N 38°52' E 001°19'0 0.0
2016-Jun-23 22:31N 38°52' E 001°19'0 0.0
2016-Jun-23 21:33N 38°52' E 001°19'0 0.0
2016-Jun-23 20:33N 38°52' E 001°19'0 0.1
2016-Jun-23 19:33N 38°52' E 001°19'8 8.0
2016-Jun-23 18:33N 38°46' E 001°26'0 0.0
2016-Jun-23 17:33N 38°46' E 001°26'0 0.0
2016-Jun-23 16:33N 38°46' E 001°26'0 0.0
2016-Jun-23 15:33N 38°46' E 001°26'0 0.0
2016-Jun-23 14:33N 38°46' E 001°26'0 0.0
2016-Jun-23 13:33N 38°46' E 001°26'0 0.0
2016-Jun-23 12:33N 38°46' E 001°26'0 0.0
2016-Jun-23 11:33N 38°46' E 001°26'0 0.0
2016-Jun-23 10:32N 38°46' E 001°26'0 0.0
2016-Jun-23 09:33N 38°46' E 001°26'0 0.0
2016-Jun-23 08:33N 38°46' E 001°26'0 0.0
2016-Jun-23 07:33N 38°46' E 001°26'0 0.0
2016-Jun-23 05:33N 38°46' E 001°26'0 0.0
2016-Jun-23 04:33N 38°46' E 001°26'0 0.0
2016-Jun-23 03:33N 38°46' E 001°26'0 0.0
2016-Jun-23 02:33N 38°46' E 001°26'0 0.0
2016-Jun-23 01:31N 38°46' E 001°26'0 0.0
2016-Jun-23 00:33N 38°46' E 001°26'0 0.0
2016-Jun-22 23:33N 38°46' E 001°26'0 0.0
2016-Jun-22 22:33N 38°46' E 001°26'0 0.0
2016-Jun-22 21:33N 38°46' E 001°26'0 0.0
2016-Jun-22 20:33N 38°46' E 001°26'0 0.0
2016-Jun-22 19:33N 38°46' E 001°26'0 0.0
2016-Jun-22 18:33N 38°46' E 001°26'0 0.0
2016-Jun-22 17:33N 38°46' E 001°26'0 0.0
2016-Jun-22 16:33N 38°46' E 001°26'0 0.0
2016-Jun-22 15:33N 38°46' E 001°26'0 0.0
2016-Jun-22 14:33N 38°46' E 001°26'0 0.0
2016-Jun-22 13:33N 38°46' E 001°26'0 0.0
2016-Jun-22 12:32N 38°46' E 001°26'0 0.0
2016-Jun-22 11:33N 38°46' E 001°26'0 0.0
2016-Jun-22 10:32N 38°46' E 001°26'0 0.0
2016-Jun-22 09:23N 38°46' E 001°26'0 0.0
2016-Jun-22 08:33N 38°46' E 001°26'0 0.0
2016-Jun-22 07:33N 38°46' E 001°26'0 0.0
2016-Jun-22 06:22N 38°46' E 001°26'0 0.0
2016-Jun-22 05:33N 38°46' E 001°26'0 0.0
2016-Jun-22 04:33N 38°46' E 001°26'0 0.0
2016-Jun-22 03:33N 38°46' E 001°26'0 0.0
2016-Jun-22 02:31N 38°46' E 001°26'0 0.0
2016-Jun-22 01:32N 38°46' E 001°26'0 0.0
2016-Jun-22 00:33N 38°46' E 001°26'0 0.0
2016-Jun-21 23:33N 38°46' E 001°26'0 0.0
2016-Jun-21 22:33N 38°46' E 001°26'0 0.0
2016-Jun-21 21:23N 38°46' E 001°26'0 0.0
2016-Jun-21 20:32N 38°46' E 001°26'0 0.0
2016-Jun-21 19:33N 38°46' E 001°26'0 0.0
2016-Jun-21 18:33N 38°46' E 001°26'0 0.0
2016-Jun-21 17:32N 38°46' E 001°26'0 0.0
2016-Jun-21 16:30N 38°46' E 001°26'0 0.0
2016-Jun-21 15:29N 38°46' E 001°26'0 0.0
2016-Jun-21 14:33N 38°46' E 001°26'0 0.0
2016-Jun-21 13:33N 38°46' E 001°26'0 0.0
2016-Jun-21 12:33N 38°46' E 001°26'0 0.0
2016-Jun-21 11:33N 38°46' E 001°26'0 0.0
2016-Jun-21 10:33N 38°46' E 001°26'0 0.0
2016-Jun-21 09:27N 38°46' E 001°26'7 7.4
2016-Jun-21 08:32N 38°51' E 001°20'1 0.3
2016-Jun-21 04:21N 38°52' E 001°19'0 0.0
2016-Jun-21 03:24N 38°52' E 001°19'0 0.0
2016-Jun-20 23:20N 38°52' E 001°19'0 0.1
2016-Jun-20 16:26N 38°51' E 001°19'8 8.7
2016-Jun-20 15:32N 38°46' E 001°26'0 0.0
2016-Jun-20 14:29N 38°46' E 001°26'0 0.0
2016-Jun-20 13:28N 38°46' E 001°26'0 0.0
2016-Jun-20 12:28N 38°46' E 001°26'0 0.0
2016-Jun-20 11:28N 38°46' E 001°26'0 0.0
2016-Jun-20 10:30N 38°46' E 001°26'0 0.0
2016-Jun-20 09:29N 38°46' E 001°26'6 6.2
2016-Jun-20 08:33N 38°51' E 001°27'2 0.1
2016-Jun-19 15:27N 38°50' E 001°26'5 3.9
2016-Jun-19 14:07N 38°45' E 001°26'0 0.0
2016-Jun-19 13:17N 38°45' E 001°26'0 0.0
2016-Jun-19 12:30N 38°45' E 001°26'0 0.0
2016-Jun-19 09:22N 38°45' E 001°26'0 0.0
2016-Jun-19 08:16N 38°45' E 001°26'0 0.0
2016-Jun-19 06:23N 38°45' E 001°26'0 0.0
2016-Jun-19 05:31N 38°45' E 001°26'0 0.0
2016-Jun-19 04:33N 38°45' E 001°26'0 0.0
2016-Jun-19 03:31N 38°45' E 001°26'0 0.0
2016-Jun-19 02:30N 38°45' E 001°26'0 0.0
2016-Jun-19 01:29N 38°45' E 001°26'0 0.0
2016-Jun-19 00:29N 38°45' E 001°26'0 0.0
2016-Jun-18 23:28N 38°45' E 001°26'0 0.0
2016-Jun-18 22:25N 38°45' E 001°26'0 0.0
2016-Jun-18 21:33N 38°45' E 001°26'0 0.0
2016-Jun-18 20:33N 38°45' E 001°26'0 0.0
2016-Jun-18 19:33N 38°45' E 001°26'0 0.0
2016-Jun-18 18:33N 38°45' E 001°26'0 0.0
2016-Jun-18 17:33N 38°45' E 001°26'1 1.2
2016-Jun-18 16:33N 38°46' E 001°26'0 0.0
2016-Jun-18 15:34N 38°46' E 001°26'0 0.0
2016-Jun-18 14:31N 38°46' E 001°26'0 0.0
2016-Jun-18 13:33N 38°46' E 001°26'0 0.0
2016-Jun-18 12:33N 38°46' E 001°26'0 0.0
2016-Jun-18 11:33N 38°46' E 001°26'0 0.0
2016-Jun-18 10:30N 38°46' E 001°26'0 0.2
2016-Jun-18 09:32N 38°46' E 001°26'0 0.0
2016-Jun-18 08:33N 38°46' E 001°26'1 0.5
2016-Jun-18 07:33N 38°45' E 001°25'8 7.8
2016-Jun-18 06:33N 38°53' E 001°27'2 0.6
2016-Jun-18 03:33N 38°55' E 001°28'0 0.0
2016-Jun-18 02:33N 38°55' E 001°28'0 0.0
2016-Jun-18 00:33N 38°55' E 001°28'0 0.0
2016-Jun-17 23:08N 38°55' E 001°28'0 0.0
2016-Jun-17 22:31N 38°55' E 001°28'0 0.0
2016-Jun-17 18:32N 38°55' E 001°28'0 0.0
2016-Jun-17 17:31N 38°55' E 001°28'0 0.0
2016-Jun-17 16:22N 38°55' E 001°28'5 0.6
2016-Jun-17 08:33N 38°50' E 001°26'6 5.7
2016-Jun-17 07:33N 38°50' E 001°19'8 8.2
2016-Jun-17 06:33N 38°52' E 001°29'1010.2
2016-Jun-17 05:33N 38°60' E 001°38'10 9.5
2016-Jun-17 04:33N 39°09' E 001°38'1010.4
2016-Jun-17 03:33N 39°18' E 001°33'1010.3
2016-Jun-17 02:33N 39°28' E 001°27'2110.3
2016-Jun-17 00:32N 39°47' E 001°15'1010.1
2016-Jun-16 23:33N 39°56' E 001°11'10 9.8
2016-Jun-16 22:33N 40°05' E 001°07'1010.0
2016-Jun-16 21:33N 40°14' E 001°01'1111.3
2016-Jun-16 20:33N 40°24' E 000°54'10 8.9
2016-Jun-16 19:23N 40°34' E 000°56'1110.7
2016-Jun-16 18:19N 40°43' E 001°06'810.8
2016-Jun-16 17:33N 40°46' E 001°15'2210.8
2016-Jun-16 15:29N 40°57' E 001°42'1011.0
2016-Jun-16 14:33N 41°02' E 001°54'1111.1
2016-Jun-16 13:33N 41°07' E 002°06'1510.9
2016-Jun-16 12:11N 41°14' E 002°24'19911.9
2016-Jun-15 19:25N 42°51' E 006°18'4012.6
2016-Jun-15 16:18N 43°19' E 006°56'912.4
2016-Jun-15 15:33N 43°27' E 007°04'  

Dump ship's entire track history